15:50
Airports
History
Links
Donate
Help keep this website running!
PayPal
Bitcoin
This page is community maintained. The information is intended for PC simulator navigation or reference.
Always use approved charts for navigation.
6Y4
Bonnie Field
Bonnie Field (6Y4)
Rock, Michigan, United States (49880)
4
Lat/Lng:46° 3' 7.84" N / 87° 15' 29.5" W
46.052178 / -87.258194
Elevation:970'ft / 296mMSL
ID / ICAO:6Y4
Runways:1
Longest:12-30
Grass 789m / 2,587ft
Nearby Weather14:56 GMT 2018-01-18
Nearby weather at KESC, Delta County located 24.1 nautical miles from 6Y4
Altimeter: 29.85
Visibility: 10.0 statute miles
Wind: 4 knots (from 190°)
Temp: -7°c / 19°f
Humidity: 79.1%

METAR: KESC 181456Z AUTO 19004KT 10SM CLR M07/M10 A2985 RMK AO2 SLP133 T10721100 55004 FZRANO

(Powered by phpweather)
Nearby VORs <50NM
Nearby NDBs
Runway 12 / 30
Dimensions:788.6 x 30.5m 2587' x 100'ft
Surface:Grass
Runway 12 [A]Runway 30 [B]
Heading:116°TH 296°TH
Lat:
Lng:
46° 3' 13.67"N
87° 15' 45.98"W
46° 3' 2.01"N
87° 15' 13.02"W
User Notes and Comments
46° 3' 7.84" N / 87° 15' 29.5" W
Distance To
Airport ID:
Nearby Airports
4 W Gladstone 15.0 NM
9C9 SSE 153°
4 Ramsy Farm 15.1 NM
1MI4 S 191°
(R) Lesterson Field 16.3 NM
0MI4 NNW 337°
(C) Sawyer Intl 21.8 NM
KSAW NNW 342°
(U) Delta County 24.1 NM
KESC ( WX ) SSE 160°
(R) Southfork 29.3 NM
1MI9 N 351°
4 Edward F Johnson 32.4 NM
0MI7 NW 308°
VFR Chart
Flight Planning at SkyVector.com